Benson, MN

5:08 PM CST on December 13, 2017 (GMT -0600)
Benson Municipal

Weather History for KBBB - October, 2013

Change the Weather History Date:

Friday, October 11, 2013

  Actual Average Record
Temperature  
Mean Temperature 60 °F -  
Max Temperature 68 °F 61 °F 91 °F (2015)
Min Temperature 51 °F 39 °F 21 °F (2012)
Degree Days  
Heating Degree Days 6    
Growing Degree Days 10 (Base 50)    
Moisture  
Dew Point 53 °F    
Average Humidity 74    
Maximum Humidity 88    
Minimum Humidity 56    
Precipitation  
Precipitation 0.00 in - - ()
Sea Level Pressure  
Sea Level Pressure 29.63 in    
Wind  
Wind Speed 14 mph (South)    
Max Wind Speed 25 mph    
Max Gust Speed 34 mph    
Visibility 10 miles    
Events Rain , Thunderstorm    
Averages and records for this station are not official NWS values.
T = Trace of Precipitation, MM = Missing Value Source: NWS Daily Summary

Daily Weather History Graph

Daily Weather History Graph

Search for Another Location

Airport or City:

Trip Planner

Search our weather history database for the weather conditions in past years. The results will help you decide how hot, cold, wet, or windy it might be!

Date:

Astronomy

Oct. 11, 2013 Rise Set
Actual Time 7:33 AM CDT 6:43 PM CDT
Civil Twilight 7:04 AM CDT 7:13 PM CDT
Nautical Twilight 6:29 AM CDT 7:47 PM CDT
Astronomical Twilight 5:55 AM CDT 8:21 PM CDT
Moon 2:25 PM CDT (10/11) No Moon Set
Length of Visible Light 12h 09m
Length of Day
11h 10m
Waxing Crescent, 47% of the Moon is Illuminated
Oct 11
Waxing Crescent
Oct 11
First Quarter
Oct 18
Full
Oct 26
Last Quarter
Nov 3
New

Hourly Weather History & Observations

Time (CDT) Temp. Dew Point Humidity Pressure Visibility Wind Dir Wind Speed Gust Speed Precip Events Conditions
12:01 AM 64.4 °F 48.2 °F 56% 29.76 in 10.0 mi SSE 13.8 mph 19.6 mph N/A   Clear
12:21 AM 64.4 °F 48.2 °F 56% 29.75 in 10.0 mi SSE 11.5 mph - N/A   Clear
12:41 AM 62.6 °F 48.2 °F 59% 29.75 in 10.0 mi SSE 11.5 mph 20.7 mph N/A   Clear
1:01 AM 62.6 °F 48.2 °F 59% 29.76 in 10.0 mi SSE 12.7 mph 18.4 mph N/A   Clear
1:21 AM 62.6 °F 48.2 °F 59% 29.76 in 10.0 mi SSE 11.5 mph 17.3 mph N/A   Clear
1:41 AM 62.6 °F 48.2 °F 59% 29.76 in 10.0 mi SSE 11.5 mph 18.4 mph N/A   Clear
2:01 AM 62.6 °F 48.2 °F 59% 29.75 in 10.0 mi SSE 10.4 mph - N/A   Clear
2:21 AM 62.6 °F 48.2 °F 59% 29.75 in 10.0 mi SSE 10.4 mph - N/A   Clear
2:41 AM 60.8 °F 50.0 °F 68% 29.76 in 10.0 mi SSE 12.7 mph 17.3 mph N/A   Clear
3:01 AM 60.8 °F 50.0 °F 68% 29.75 in 10.0 mi SSE 11.5 mph 17.3 mph N/A   Clear
3:21 AM 60.8 °F 50.0 °F 68% 29.76 in 10.0 mi SSE 12.7 mph 16.1 mph N/A   Clear
3:41 AM 60.8 °F 50.0 °F 68% 29.77 in 10.0 mi SSE 10.4 mph 16.1 mph N/A   Clear
4:01 AM 60.8 °F 50.0 °F 68% 29.76 in 10.0 mi SSE 11.5 mph - N/A   Clear
4:21 AM 60.8 °F 51.8 °F 72% 29.75 in 10.0 mi SE 10.4 mph - N/A   Clear
4:41 AM 59.0 °F 50.0 °F 72% 29.75 in 10.0 mi SE 11.5 mph 16.1 mph N/A   Clear
5:01 AM 59.0 °F 50.0 °F 72% 29.74 in 10.0 mi SE 11.5 mph 18.4 mph N/A   Clear
5:21 AM 60.8 °F 51.8 °F 72% 29.73 in 10.0 mi SSE 13.8 mph 20.7 mph N/A   Clear
5:41 AM 59.0 °F 51.8 °F 77% 29.72 in 10.0 mi SE 11.5 mph 18.4 mph N/A   Clear
6:01 AM 59.0 °F 51.8 °F 77% 29.72 in 10.0 mi SSE 12.7 mph 18.4 mph N/A   Clear
6:21 AM 59.0 °F 51.8 °F 77% 29.71 in 10.0 mi SSE 10.4 mph 18.4 mph N/A   Clear
6:41 AM 59.0 °F 51.8 °F 77% 29.71 in 10.0 mi SSE 11.5 mph 17.3 mph N/A   Clear
7:01 AM 59.0 °F 51.8 °F 77% 29.70 in 10.0 mi SSE 13.8 mph 19.6 mph N/A   Clear
7:21 AM 60.8 °F 51.8 °F 72% 29.70 in 10.0 mi SSE 12.7 mph 20.7 mph N/A   Clear
7:41 AM 60.8 °F 51.8 °F 72% 29.69 in 10.0 mi SSE 16.1 mph 21.9 mph N/A   Clear
8:01 AM 60.8 °F 51.8 °F 72% 29.68 in 10.0 mi SSE 17.3 mph 24.2 mph N/A   Clear
8:21 AM 60.8 °F 51.8 °F 72% 29.68 in 10.0 mi SSE 13.8 mph 20.7 mph N/A   Clear
8:41 AM 60.8 °F 51.8 °F 72% 29.67 in 10.0 mi SSE 13.8 mph 24.2 mph N/A   Clear
9:01 AM 60.8 °F 51.8 °F 72% 29.67 in 10.0 mi SSE 13.8 mph 23.0 mph N/A   Clear
9:21 AM 60.8 °F 53.6 °F 77% 29.66 in 10.0 mi SSE 18.4 mph 21.9 mph N/A   Clear
9:41 AM 62.6 °F 53.6 °F 72% 29.65 in 10.0 mi SSE 15.0 mph 23.0 mph N/A   Clear
10:08 AM 62.6 °F 53.6 °F 72% 29.63 in 10.0 mi SSE 17.3 mph 26.5 mph N/A   Clear
10:23 AM 64.4 °F 53.6 °F 68% 29.63 in 10.0 mi SSE 18.4 mph 21.9 mph N/A   Scattered Clouds
10:47 AM 64.4 °F 53.6 °F 68% 29.63 in 10.0 mi SSE 15.0 mph 26.5 mph N/A   Scattered Clouds
11:14 AM 64.4 °F 53.6 °F 68% 29.63 in 10.0 mi South 19.6 mph 28.8 mph N/A   Scattered Clouds
11:31 AM 62.6 °F 55.4 °F 77% 29.63 in 7.0 mi South 19.6 mph 26.5 mph N/A   Mostly Cloudy
11:54 AM 60.8 °F 55.4 °F 82% 29.61 in 10.0 mi South 13.8 mph 20.7 mph N/A   Overcast
12:13 PM 60.8 °F 55.4 °F 82% 29.59 in 5.0 mi SSE 11.5 mph - N/A   Overcast
12:28 PM 60.8 °F 55.4 °F 82% 29.59 in 7.0 mi South 16.1 mph 27.6 mph N/A Rain , Thunderstorm Light Thunderstorms and Rain
12:32 PM 60.8 °F 57.2 °F 88% 29.57 in 7.0 mi SSE 16.1 mph 23.0 mph N/A Rain , Thunderstorm Rain
12:52 PM 60.8 °F 57.2 °F 88% 29.56 in 5.0 mi South 13.8 mph 21.9 mph N/A Rain , Thunderstorm Rain
1:13 PM 62.6 °F 57.2 °F 82% 29.55 in 10.0 mi South 20.7 mph 26.5 mph N/A Thunderstorm Unknown
1:32 PM 62.6 °F 57.2 °F 82% 29.56 in 10.0 mi South 20.7 mph 28.8 mph N/A Thunderstorm Mostly Cloudy
1:53 PM 60.8 °F 57.2 °F 88% 29.55 in 10.0 mi South 13.8 mph 25.3 mph N/A   Overcast
2:12 PM 62.6 °F 57.2 °F 82% 29.53 in 10.0 mi SSE 17.3 mph 24.2 mph N/A Thunderstorm Overcast
2:33 PM 62.6 °F 59.0 °F 88% 29.50 in 10.0 mi SSE 20.7 mph 32.2 mph N/A   Overcast
2:53 PM 62.6 °F 59.0 °F 88% 29.51 in 10.0 mi South 20.7 mph 26.5 mph N/A   Overcast
3:12 PM 64.4 °F 59.0 °F 83% 29.52 in 10.0 mi South 20.7 mph 27.6 mph N/A   Overcast
3:33 PM 64.4 °F 59.0 °F 83% 29.52 in 10.0 mi South 19.6 mph 29.9 mph N/A   Overcast
3:53 PM 66.2 °F 59.0 °F 78% 29.51 in 10.0 mi South 24.2 mph 29.9 mph N/A   Overcast
4:12 PM 68.0 °F 59.0 °F 73% 29.51 in 10.0 mi South 25.3 mph 33.4 mph N/A   Scattered Clouds
4:33 PM 66.2 °F 59.0 °F 78% 29.49 in 10.0 mi South 23.0 mph 34.5 mph N/A   Clear
4:53 PM 66.2 °F 59.0 °F 78% 29.48 in 10.0 mi South 21.9 mph 32.2 mph N/A   Mostly Cloudy
5:12 PM 66.2 °F 57.2 °F 73% 29.48 in 10.0 mi South 20.7 mph 32.2 mph N/A   Mostly Cloudy
5:33 PM 66.2 °F 57.2 °F 73% 29.48 in 10.0 mi South 19.6 mph 28.8 mph N/A   Mostly Cloudy
5:53 PM 64.4 °F 59.0 °F 83% 29.48 in 7.0 mi SSW 17.3 mph 29.9 mph N/A Rain Light Rain
6:12 PM 64.4 °F 60.8 °F 88% 29.49 in 5.0 mi South 18.4 mph 28.8 mph N/A Rain Heavy Rain
6:33 PM 64.4 °F 60.8 °F 88% 29.50 in 10.0 mi South 21.9 mph 29.9 mph N/A   Overcast
6:53 PM 64.4 °F 59.0 °F 83% 29.50 in 10.0 mi SSW 19.6 mph 27.6 mph N/A   Overcast
7:12 PM 64.4 °F 57.2 °F 77% 29.51 in 10.0 mi SSW 11.5 mph - N/A   Overcast
7:33 PM 64.4 °F 57.2 °F 77% 29.51 in 10.0 mi SSW 12.7 mph 17.3 mph N/A   Overcast
7:53 PM 62.6 °F 55.4 °F 77% 29.52 in 10.0 mi SW 11.5 mph - N/A   Mostly Cloudy
8:12 PM 62.6 °F 50.0 °F 63% 29.54 in 10.0 mi West 20.7 mph 26.5 mph N/A   Scattered Clouds
8:33 PM 60.8 °F 48.2 °F 63% 29.55 in 10.0 mi West 17.3 mph 25.3 mph N/A   Clear
8:52 PM 59.0 °F 48.2 °F 67% 29.57 in 10.0 mi West 17.3 mph 24.2 mph N/A   Clear
9:12 PM 55.4 °F 48.2 °F 77% 29.59 in 10.0 mi West 20.7 mph 32.2 mph N/A   Clear
9:33 PM 53.6 °F 46.4 °F 77% 29.60 in 10.0 mi West 16.1 mph 20.7 mph N/A   Scattered Clouds
9:52 PM 53.6 °F 46.4 °F 77% 29.60 in 10.0 mi West 15.0 mph 21.9 mph N/A   Mostly Cloudy
10:12 PM 55.4 °F 46.4 °F 72% 29.61 in 10.0 mi West 18.4 mph 26.5 mph N/A   Overcast
10:33 PM 53.6 °F 46.4 °F 77% 29.63 in 10.0 mi West 20.7 mph 27.6 mph N/A   Overcast
10:52 PM 53.6 °F 44.6 °F 72% 29.63 in 10.0 mi West 19.6 mph 26.5 mph N/A   Overcast
11:12 PM 53.6 °F 44.6 °F 72% 29.65 in 10.0 mi West 15.0 mph 25.3 mph N/A   Overcast
11:33 PM 51.8 °F 42.8 °F 71% 29.66 in 10.0 mi West 16.1 mph 27.6 mph N/A   Overcast
11:52 PM 51.8 °F 42.8 °F 71% 29.66 in 10.0 mi WSW 13.8 mph 24.2 mph N/A   Overcast